sensor_id;sensor_type;location;lat;lon;timestamp;P1;durP1;ratioP1;P2;durP2;ratioP2
5355;SDS011;70449;52.486;13.386;2023-10-13T00:00:25;7.03;;;4.00;;
5355;SDS011;70449;52.486;13.386;2023-10-13T00:02:54;8.97;;;4.40;;
5355;SDS011;70449;52.486;13.386;2023-10-13T00:05:26;8.00;;;4.27;;
5355;SDS011;70449;52.486;13.386;2023-10-13T00:07:57;10.70;;;5.27;;
5355;SDS011;70449;52.486;13.386;2023-10-13T00:10:27;10.17;;;4.73;;
5355;SDS011;70449;52.486;13.386;2023-10-13T00:12:54;13.73;;;5.87;;
5355;SDS011;70449;52.486;13.386;2023-10-13T00:15:30;17.10;;;5.43;;
5355;SDS011;70449;52.486;13.386;2023-10-13T00:18:04;13.73;;;5.53;;
5355;SDS011;70449;52.486;13.386;2023-10-13T00:20:37;10.00;;;4.87;;
5355;SDS011;70449;52.486;13.386;2023-10-13T00:23:14;16.23;;;5.30;;
5355;SDS011;70449;52.486;13.386;2023-10-13T00:25:46;7.80;;;4.53;;
5355;SDS011;70449;52.486;13.386;2023-10-13T00:28:22;11.83;;;4.93;;
5355;SDS011;70449;52.486;13.386;2023-10-13T00:30:51;16.10;;;5.27;;
5355;SDS011;70449;52.486;13.386;2023-10-13T00:33:25;10.33;;;5.07;;
5355;SDS011;70449;52.486;13.386;2023-10-13T00:35:53;16.10;;;5.23;;
5355;SDS011;70449;52.486;13.386;2023-10-13T00:38:24;11.27;;;4.37;;
5355;SDS011;70449;52.486;13.386;2023-10-13T00:40:52;12.70;;;5.23;;
5355;SDS011;70449;52.486;13.386;2023-10-13T00:43:20;13.07;;;4.87;;
5355;SDS011;70449;52.486;13.386;2023-10-13T00:45:57;8.47;;;5.13;;
5355;SDS011;70449;52.486;13.386;2023-10-13T00:48:33;10.03;;;5.07;;
5355;SDS011;70449;52.486;13.386;2023-10-13T00:51:08;12.37;;;4.13;;
5355;SDS011;70449;52.486;13.386;2023-10-13T00:53:49;10.13;;;3.50;;
5355;SDS011;70449;52.486;13.386;2023-10-13T00:56:16;10.50;;;4.80;;
5355;SDS011;70449;52.486;13.386;2023-10-13T00:58:47;13.63;;;4.50;;
5355;SDS011;70449;52.486;13.386;2023-10-13T01:01:17;10.63;;;4.60;;
5355;SDS011;70449;52.486;13.386;2023-10-13T01:03:44;8.40;;;4.00;;
5355;SDS011;70449;52.486;13.386;2023-10-13T01:06:15;5.07;;;4.30;;
5355;SDS011;70449;52.486;13.386;2023-10-13T01:08:45;11.23;;;4.23;;
5355;SDS011;70449;52.486;13.386;2023-10-13T01:11:18;7.57;;;5.00;;
5355;SDS011;70449;52.486;13.386;2023-10-13T01:13:44;7.07;;;4.80;;
5355;SDS011;70449;52.486;13.386;2023-10-13T01:16:16;8.30;;;4.80;;
5355;SDS011;70449;52.486;13.386;2023-10-13T01:18:42;7.57;;;4.13;;
5355;SDS011;70449;52.486;13.386;2023-10-13T01:21:14;13.10;;;5.97;;
5355;SDS011;70449;52.486;13.386;2023-10-13T01:23:44;18.57;;;5.37;;
5355;SDS011;70449;52.486;13.386;2023-10-13T01:26:12;11.80;;;5.33;;
5355;SDS011;70449;52.486;13.386;2023-10-13T01:28:47;13.00;;;4.87;;
5355;SDS011;70449;52.486;13.386;2023-10-13T01:31:14;8.90;;;4.63;;
5355;SDS011;70449;52.486;13.386;2023-10-13T01:33:50;11.43;;;5.33;;
5355;SDS011;70449;52.486;13.386;2023-10-13T01:36:19;11.33;;;5.30;;
5355;SDS011;70449;52.486;13.386;2023-10-13T01:38:49;8.07;;;5.30;;
5355;SDS011;70449;52.486;13.386;2023-10-13T01:41:16;8.10;;;5.73;;
5355;SDS011;70449;52.486;13.386;2023-10-13T01:43:47;6.57;;;5.30;;
5355;SDS011;70449;52.486;13.386;2023-10-13T01:46:14;15.50;;;6.93;;
5355;SDS011;70449;52.486;13.386;2023-10-13T01:48:44;14.20;;;5.97;;
5355;SDS011;70449;52.486;13.386;2023-10-13T01:51:11;10.03;;;6.60;;
5355;SDS011;70449;52.486;13.386;2023-10-13T01:53:39;12.00;;;7.80;;
5355;SDS011;70449;52.486;13.386;2023-10-13T01:56:08;12.07;;;6.80;;
5355;SDS011;70449;52.486;13.386;2023-10-13T01:58:39;9.67;;;6.80;;
5355;SDS011;70449;52.486;13.386;2023-10-13T02:01:12;14.40;;;7.20;;
5355;SDS011;70449;52.486;13.386;2023-10-13T02:03:51;13.83;;;7.50;;
5355;SDS011;70449;52.486;13.386;2023-10-13T02:06:28;35.57;;;8.40;;
5355;SDS011;70449;52.486;13.386;2023-10-13T02:09:01;11.90;;;7.40;;
5355;SDS011;70449;52.486;13.386;2023-10-13T02:11:38;14.70;;;7.47;;
5355;SDS011;70449;52.486;13.386;2023-10-13T02:14:06;14.10;;;8.27;;
5355;SDS011;70449;52.486;13.386;2023-10-13T02:16:36;19.37;;;8.33;;
5355;SDS011;70449;52.486;13.386;2023-10-13T02:19:03;17.23;;;7.90;;
5355;SDS011;70449;52.486;13.386;2023-10-13T02:21:30;20.33;;;9.37;;
5355;SDS011;70449;52.486;13.386;2023-10-13T02:24:04;14.10;;;8.13;;
5355;SDS011;70449;52.486;13.386;2023-10-13T02:26:39;17.83;;;8.43;;
5355;SDS011;70449;52.486;13.386;2023-10-13T02:29:07;13.23;;;8.50;;
5355;SDS011;70449;52.486;13.386;2023-10-13T02:31:34;18.70;;;8.90;;
5355;SDS011;70449;52.486;13.386;2023-10-13T02:34:02;13.93;;;8.87;;
5355;SDS011;70449;52.486;13.386;2023-10-13T02:36:33;18.30;;;8.93;;
5355;SDS011;70449;52.486;13.386;2023-10-13T02:39:12;22.57;;;10.00;;
5355;SDS011;70449;52.486;13.386;2023-10-13T02:41:40;22.37;;;9.60;;
5355;SDS011;70449;52.486;13.386;2023-10-13T02:44:13;21.63;;;9.23;;
5355;SDS011;70449;52.486;13.386;2023-10-13T02:46:51;16.23;;;8.90;;
5355;SDS011;70449;52.486;13.386;2023-10-13T02:49:20;23.37;;;9.77;;
5355;SDS011;70449;52.486;13.386;2023-10-13T02:51:47;17.27;;;10.17;;
5355;SDS011;70449;52.486;13.386;2023-10-13T02:54:14;17.77;;;10.20;;
5355;SDS011;70449;52.486;13.386;2023-10-13T02:56:44;20.17;;;9.63;;
5355;SDS011;70449;52.486;13.386;2023-10-13T02:59:21;24.07;;;10.43;;
5355;SDS011;70449;52.486;13.386;2023-10-13T03:01:59;33.67;;;11.60;;
5355;SDS011;70449;52.486;13.386;2023-10-13T03:04:31;22.67;;;9.63;;
5355;SDS011;70449;52.486;13.386;2023-10-13T03:06:58;26.53;;;9.90;;
5355;SDS011;70449;52.486;13.386;2023-10-13T03:09:25;18.50;;;10.33;;
5355;SDS011;70449;52.486;13.386;2023-10-13T03:11:54;21.93;;;11.50;;
5355;SDS011;70449;52.486;13.386;2023-10-13T03:14:22;21.17;;;10.70;;
5355;SDS011;70449;52.486;13.386;2023-10-13T03:16:49;23.47;;;11.40;;
5355;SDS011;70449;52.486;13.386;2023-10-13T03:19:18;20.83;;;12.00;;
5355;SDS011;70449;52.486;13.386;2023-10-13T03:21:44;21.47;;;10.80;;
5355;SDS011;70449;52.486;13.386;2023-10-13T03:24:20;18.53;;;10.37;;
5355;SDS011;70449;52.486;13.386;2023-10-13T03:26:59;22.50;;;12.20;;
5355;SDS011;70449;52.486;13.386;2023-10-13T03:29:35;23.90;;;12.07;;
5355;SDS011;70449;52.486;13.386;2023-10-13T03:32:04;28.23;;;12.63;;
5355;SDS011;70449;52.486;13.386;2023-10-13T03:34:36;24.03;;;12.80;;
5355;SDS011;70449;52.486;13.386;2023-10-13T03:37:14;30.90;;;12.10;;
5355;SDS011;70449;52.486;13.386;2023-10-13T03:39:45;27.07;;;12.37;;
5355;SDS011;70449;52.486;13.386;2023-10-13T03:42:14;35.50;;;13.50;;
5355;SDS011;70449;52.486;13.386;2023-10-13T03:44:45;20.53;;;12.43;;
5355;SDS011;70449;52.486;13.386;2023-10-13T03:47:13;27.53;;;13.50;;
5355;SDS011;70449;52.486;13.386;2023-10-13T03:49:51;20.17;;;12.77;;
5355;SDS011;70449;52.486;13.386;2023-10-13T03:52:40;27.03;;;12.40;;
5355;SDS011;70449;52.486;13.386;2023-10-13T03:55:07;35.43;;;12.00;;
5355;SDS011;70449;52.486;13.386;2023-10-13T03:57:44;33.90;;;13.00;;
5355;SDS011;70449;52.486;13.386;2023-10-13T04:00:15;27.73;;;13.50;;
5355;SDS011;70449;52.486;13.386;2023-10-13T04:02:49;37.33;;;12.67;;
5355;SDS011;70449;52.486;13.386;2023-10-13T04:05:29;34.73;;;14.40;;
5355;SDS011;70449;52.486;13.386;2023-10-13T04:08:04;31.13;;;13.40;;
5355;SDS011;70449;52.486;13.386;2023-10-13T04:10:48;25.13;;;13.73;;
5355;SDS011;70449;52.486;13.386;2023-10-13T04:13:35;34.37;;;15.27;;
5355;SDS011;70449;52.486;13.386;2023-10-13T04:16:19;33.63;;;13.97;;
5355;SDS011;70449;52.486;13.386;2023-10-13T04:19:04;30.30;;;15.40;;
5355;SDS011;70449;52.486;13.386;2023-10-13T04:21:36;27.73;;;13.60;;
5355;SDS011;70449;52.486;13.386;2023-10-13T04:24:07;37.50;;;15.67;;
5355;SDS011;70449;52.486;13.386;2023-10-13T04:26:59;32.30;;;16.80;;
5355;SDS011;70449;52.486;13.386;2023-10-13T04:29:45;34.03;;;16.50;;
5355;SDS011;70449;52.486;13.386;2023-10-13T04:32:16;29.67;;;15.50;;
5355;SDS011;70449;52.486;13.386;2023-10-13T04:34:53;35.77;;;16.07;;
5355;SDS011;70449;52.486;13.386;2023-10-13T04:37:33;30.60;;;16.57;;
5355;SDS011;70449;52.486;13.386;2023-10-13T04:40:14;36.90;;;15.20;;
5355;SDS011;70449;52.486;13.386;2023-10-13T04:42:44;45.20;;;17.00;;
5355;SDS011;70449;52.486;13.386;2023-10-13T04:45:17;36.30;;;16.00;;
5355;SDS011;70449;52.486;13.386;2023-10-13T04:48:04;45.40;;;17.73;;
5355;SDS011;70449;52.486;13.386;2023-10-13T04:50:52;31.90;;;17.17;;
5355;SDS011;70449;52.486;13.386;2023-10-13T04:53:58;28.50;;;14.90;;
5355;SDS011;70449;52.486;13.386;2023-10-13T04:56:36;34.10;;;16.10;;
5355;SDS011;70449;52.486;13.386;2023-10-13T04:59:21;29.13;;;16.17;;
5355;SDS011;70449;52.486;13.386;2023-10-13T05:02:25;32.90;;;15.33;;
5355;SDS011;70449;52.486;13.386;2023-10-13T05:05:09;28.23;;;15.87;;
5355;SDS011;70449;52.486;13.386;2023-10-13T05:08:08;35.47;;;16.80;;
5355;SDS011;70449;52.486;13.386;2023-10-13T05:10:52;30.90;;;16.80;;
5355;SDS011;70449;52.486;13.386;2023-10-13T05:13:38;29.10;;;15.07;;
5355;SDS011;70449;52.486;13.386;2023-10-13T05:16:31;27.93;;;14.97;;
5355;SDS011;70449;52.486;13.386;2023-10-13T05:19:18;31.30;;;16.10;;
5355;SDS011;70449;52.486;13.386;2023-10-13T05:22:04;25.23;;;16.37;;
5355;SDS011;70449;52.486;13.386;2023-10-13T05:24:48;26.50;;;14.33;;
5355;SDS011;70449;52.486;13.386;2023-10-13T05:27:33;30.50;;;15.13;;
5355;SDS011;70449;52.486;13.386;2023-10-13T05:30:29;27.87;;;15.20;;
5355;SDS011;70449;52.486;13.386;2023-10-13T05:33:14;30.87;;;15.50;;
5355;SDS011;70449;52.486;13.386;2023-10-13T05:35:59;33.77;;;16.10;;
5355;SDS011;70449;52.486;13.386;2023-10-13T05:38:44;28.80;;;13.93;;
5355;SDS011;70449;52.486;13.386;2023-10-13T05:41:29;26.83;;;14.37;;
5355;SDS011;70449;52.486;13.386;2023-10-13T05:44:13;25.43;;;15.33;;
5355;SDS011;70449;52.486;13.386;2023-10-13T05:47:02;25.43;;;14.80;;
5355;SDS011;70449;52.486;13.386;2023-10-13T05:49:48;36.63;;;14.67;;
5355;SDS011;70449;52.486;13.386;2023-10-13T05:52:19;30.60;;;14.70;;
5355;SDS011;70449;52.486;13.386;2023-10-13T05:55:00;30.50;;;14.70;;
5355;SDS011;70449;52.486;13.386;2023-10-13T05:57:45;28.40;;;15.03;;
5355;SDS011;70449;52.486;13.386;2023-10-13T06:00:30;24.63;;;16.10;;
5355;SDS011;70449;52.486;13.386;2023-10-13T06:03:14;28.37;;;15.27;;
5355;SDS011;70449;52.486;13.386;2023-10-13T06:06:07;30.70;;;14.77;;
5355;SDS011;70449;52.486;13.386;2023-10-13T06:08:53;37.37;;;15.50;;
5355;SDS011;70449;52.486;13.386;2023-10-13T06:11:38;27.23;;;15.20;;
5355;SDS011;70449;52.486;13.386;2023-10-13T06:14:22;24.63;;;14.13;;
5355;SDS011;70449;52.486;13.386;2023-10-13T06:17:07;27.70;;;14.50;;
5355;SDS011;70449;52.486;13.386;2023-10-13T06:19:52;26.30;;;14.07;;
5355;SDS011;70449;52.486;13.386;2023-10-13T06:22:37;24.63;;;14.33;;
5355;SDS011;70449;52.486;13.386;2023-10-13T06:25:22;28.97;;;14.90;;
5355;SDS011;70449;52.486;13.386;2023-10-13T06:28:07;27.03;;;15.00;;
5355;SDS011;70449;52.486;13.386;2023-10-13T06:30:56;28.70;;;13.60;;
5355;SDS011;70449;52.486;13.386;2023-10-13T06:33:26;29.00;;;14.67;;
5355;SDS011;70449;52.486;13.386;2023-10-13T06:35:55;23.40;;;14.83;;
5355;SDS011;70449;52.486;13.386;2023-10-13T06:38:23;35.23;;;13.77;;
5355;SDS011;70449;52.486;13.386;2023-10-13T06:40:57;27.20;;;14.83;;
5355;SDS011;70449;52.486;13.386;2023-10-13T06:43:23;25.77;;;13.57;;
5355;SDS011;70449;52.486;13.386;2023-10-13T06:45:57;21.83;;;13.70;;
5355;SDS011;70449;52.486;13.386;2023-10-13T06:48:26;24.83;;;14.10;;
5355;SDS011;70449;52.486;13.386;2023-10-13T06:50:58;21.47;;;12.77;;
5355;SDS011;70449;52.486;13.386;2023-10-13T06:53:30;23.63;;;13.07;;
5355;SDS011;70449;52.486;13.386;2023-10-13T06:56:04;21.90;;;13.50;;
5355;SDS011;70449;52.486;13.386;2023-10-13T06:58:34;27.87;;;13.67;;
5355;SDS011;70449;52.486;13.386;2023-10-13T07:01:06;22.27;;;13.57;;
5355;SDS011;70449;52.486;13.386;2023-10-13T07:03:40;23.10;;;13.57;;
5355;SDS011;70449;52.486;13.386;2023-10-13T07:06:08;25.20;;;12.20;;
5355;SDS011;70449;52.486;13.386;2023-10-13T07:08:37;22.70;;;12.53;;
5355;SDS011;70449;52.486;13.386;2023-10-13T07:11:06;22.90;;;11.57;;
5355;SDS011;70449;52.486;13.386;2023-10-13T07:13:39;19.50;;;11.37;;
5355;SDS011;70449;52.486;13.386;2023-10-13T07:16:15;16.97;;;10.30;;
5355;SDS011;70449;52.486;13.386;2023-10-13T07:18:43;22.50;;;12.67;;
5355;SDS011;70449;52.486;13.386;2023-10-13T07:21:18;17.33;;;10.87;;
5355;SDS011;70449;52.486;13.386;2023-10-13T07:23:49;14.50;;;10.53;;
5355;SDS011;70449;52.486;13.386;2023-10-13T07:26:34;20.50;;;11.60;;
5355;SDS011;70449;52.486;13.386;2023-10-13T07:29:07;25.10;;;10.57;;
5355;SDS011;70449;52.486;13.386;2023-10-13T07:31:35;27.93;;;10.80;;
5355;SDS011;70449;52.486;13.386;2023-10-13T07:34:06;21.67;;;9.70;;
5355;SDS011;70449;52.486;13.386;2023-10-13T07:36:38;21.33;;;11.00;;
5355;SDS011;70449;52.486;13.386;2023-10-13T07:39:08;15.23;;;10.40;;
5355;SDS011;70449;52.486;13.386;2023-10-13T07:41:47;16.10;;;9.70;;
5355;SDS011;70449;52.486;13.386;2023-10-13T07:44:20;22.90;;;10.77;;
5355;SDS011;70449;52.486;13.386;2023-10-13T07:46:54;14.80;;;7.97;;
5355;SDS011;70449;52.486;13.386;2023-10-13T07:49:32;13.00;;;9.00;;
5355;SDS011;70449;52.486;13.386;2023-10-13T07:52:05;17.53;;;9.17;;
5355;SDS011;70449;52.486;13.386;2023-10-13T07:54:49;12.10;;;8.30;;
5355;SDS011;70449;52.486;13.386;2023-10-13T07:57:26;12.77;;;8.87;;
5355;SDS011;70449;52.486;13.386;2023-10-13T07:59:55;16.87;;;8.30;;
5355;SDS011;70449;52.486;13.386;2023-10-13T08:02:33;20.20;;;8.10;;
5355;SDS011;70449;52.486;13.386;2023-10-13T08:05:13;19.33;;;10.40;;
5355;SDS011;70449;52.486;13.386;2023-10-13T08:07:49;14.07;;;8.83;;
5355;SDS011;70449;52.486;13.386;2023-10-13T08:10:17;18.83;;;8.33;;
5355;SDS011;70449;52.486;13.386;2023-10-13T08:12:51;16.63;;;7.77;;
5355;SDS011;70449;52.486;13.386;2023-10-13T08:15:19;13.67;;;8.37;;
5355;SDS011;70449;52.486;13.386;2023-10-13T08:17:56;16.47;;;7.50;;
5355;SDS011;70449;52.486;13.386;2023-10-13T08:20:30;10.20;;;7.27;;
5355;SDS011;70449;52.486;13.386;2023-10-13T08:23:03;19.93;;;8.00;;
5355;SDS011;70449;52.486;13.386;2023-10-13T08:25:39;17.27;;;8.00;;
5355;SDS011;70449;52.486;13.386;2023-10-13T08:28:28;17.10;;;7.40;;
5355;SDS011;70449;52.486;13.386;2023-10-13T08:31:19;17.90;;;8.90;;
5355;SDS011;70449;52.486;13.386;2023-10-13T08:33:47;20.23;;;8.57;;
5355;SDS011;70449;52.486;13.386;2023-10-13T08:36:15;16.13;;;8.67;;
5355;SDS011;70449;52.486;13.386;2023-10-13T08:38:53;13.73;;;7.20;;
5355;SDS011;70449;52.486;13.386;2023-10-13T08:41:21;13.50;;;6.93;;
5355;SDS011;70449;52.486;13.386;2023-10-13T08:43:58;14.60;;;7.37;;
5355;SDS011;70449;52.486;13.386;2023-10-13T08:46:34;16.20;;;7.90;;
5355;SDS011;70449;52.486;13.386;2023-10-13T08:49:20;14.20;;;8.23;;
5355;SDS011;70449;52.486;13.386;2023-10-13T08:51:48;23.77;;;8.57;;
5355;SDS011;70449;52.486;13.386;2023-10-13T08:54:30;14.90;;;7.23;;
5355;SDS011;70449;52.486;13.386;2023-10-13T08:57:10;10.47;;;6.40;;
5355;SDS011;70449;52.486;13.386;2023-10-13T08:59:59;10.73;;;6.60;;
5355;SDS011;70449;52.486;13.386;2023-10-13T09:02:40;10.87;;;7.10;;
5355;SDS011;70449;52.486;13.386;2023-10-13T09:05:45;12.63;;;7.53;;
5355;SDS011;70449;52.486;13.386;2023-10-13T09:08:26;14.87;;;7.47;;
5355;SDS011;70449;52.486;13.386;2023-10-13T09:11:01;9.20;;;6.30;;
5355;SDS011;70449;52.486;13.386;2023-10-13T09:13:37;11.83;;;6.90;;
5355;SDS011;70449;52.486;13.386;2023-10-13T09:16:12;10.17;;;7.33;;
5355;SDS011;70449;52.486;13.386;2023-10-13T09:19:07;16.13;;;6.43;;
5355;SDS011;70449;52.486;13.386;2023-10-13T09:21:40;12.50;;;7.23;;
5355;SDS011;70449;52.486;13.386;2023-10-13T09:24:19;16.53;;;8.30;;
5355;SDS011;70449;52.486;13.386;2023-10-13T09:26:58;13.70;;;7.30;;
5355;SDS011;70449;52.486;13.386;2023-10-13T09:29:27;14.30;;;6.73;;
5355;SDS011;70449;52.486;13.386;2023-10-13T09:32:02;16.30;;;7.23;;
5355;SDS011;70449;52.486;13.386;2023-10-13T09:34:29;9.30;;;6.93;;
5355;SDS011;70449;52.486;13.386;2023-10-13T09:36:59;10.17;;;6.93;;
5355;SDS011;70449;52.486;13.386;2023-10-13T09:39:29;10.87;;;7.13;;
5355;SDS011;70449;52.486;13.386;2023-10-13T09:42:06;24.53;;;7.80;;
5355;SDS011;70449;52.486;13.386;2023-10-13T09:44:35;19.03;;;7.33;;
5355;SDS011;70449;52.486;13.386;2023-10-13T09:47:09;11.40;;;7.03;;
5355;SDS011;70449;52.486;13.386;2023-10-13T09:49:43;14.60;;;7.50;;
5355;SDS011;70449;52.486;13.386;2023-10-13T09:52:14;17.67;;;7.60;;
5355;SDS011;70449;52.486;13.386;2023-10-13T09:54:51;17.13;;;7.80;;
5355;SDS011;70449;52.486;13.386;2023-10-13T09:57:34;15.80;;;7.80;;
5355;SDS011;70449;52.486;13.386;2023-10-13T10:00:10;14.70;;;7.70;;
5355;SDS011;70449;52.486;13.386;2023-10-13T10:03:11;22.53;;;8.13;;
5355;SDS011;70449;52.486;13.386;2023-10-13T10:05:56;17.80;;;7.30;;
5355;SDS011;70449;52.486;13.386;2023-10-13T10:08:31;12.53;;;6.63;;
5355;SDS011;70449;52.486;13.386;2023-10-13T10:14:24;17.83;;;6.97;;
5355;SDS011;70449;52.486;13.386;2023-10-13T10:17:07;11.97;;;7.40;;
5355;SDS011;70449;52.486;13.386;2023-10-13T10:19:47;9.57;;;7.00;;
5355;SDS011;70449;52.486;13.386;2023-10-13T10:22:25;16.97;;;6.60;;
5355;SDS011;70449;52.486;13.386;2023-10-13T10:24:56;8.80;;;6.13;;
5355;SDS011;70449;52.486;13.386;2023-10-13T10:27:24;15.30;;;6.20;;
5355;SDS011;70449;52.486;13.386;2023-10-13T10:29:54;12.43;;;6.23;;
5355;SDS011;70449;52.486;13.386;2023-10-13T10:32:31;10.33;;;5.17;;
5355;SDS011;70449;52.486;13.386;2023-10-13T10:35:06;9.63;;;6.10;;
5355;SDS011;70449;52.486;13.386;2023-10-13T10:37:39;9.63;;;5.83;;
5355;SDS011;70449;52.486;13.386;2023-10-13T10:40:12;15.33;;;6.47;;
5355;SDS011;70449;52.486;13.386;2023-10-13T10:42:58;18.23;;;6.40;;
5355;SDS011;70449;52.486;13.386;2023-10-13T10:45:26;7.27;;;5.67;;
5355;SDS011;70449;52.486;13.386;2023-10-13T10:47:58;16.10;;;6.67;;
5355;SDS011;70449;52.486;13.386;2023-10-13T10:50:28;11.37;;;6.57;;
5355;SDS011;70449;52.486;13.386;2023-10-13T10:53:00;9.43;;;5.00;;
5355;SDS011;70449;52.486;13.386;2023-10-13T10:55:34;7.50;;;5.30;;
5355;SDS011;70449;52.486;13.386;2023-10-13T10:58:02;11.00;;;7.03;;
5355;SDS011;70449;52.486;13.386;2023-10-13T11:00:31;8.87;;;6.30;;
5355;SDS011;70449;52.486;13.386;2023-10-13T11:03:11;9.20;;;6.90;;
5355;SDS011;70449;52.486;13.386;2023-10-13T11:05:44;8.20;;;6.37;;
5355;SDS011;70449;52.486;13.386;2023-10-13T11:08:21;16.17;;;6.87;;
5355;SDS011;70449;52.486;13.386;2023-10-13T11:10:56;13.83;;;6.67;;
5355;SDS011;70449;52.486;13.386;2023-10-13T11:13:26;19.60;;;7.27;;
5355;SDS011;70449;52.486;13.386;2023-10-13T11:15:56;13.50;;;8.07;;
5355;SDS011;70449;52.486;13.386;2023-10-13T11:18:29;14.50;;;6.77;;
5355;SDS011;70449;52.486;13.386;2023-10-13T11:21:03;10.70;;;6.80;;
5355;SDS011;70449;52.486;13.386;2023-10-13T11:23:32;19.80;;;6.90;;
5355;SDS011;70449;52.486;13.386;2023-10-13T11:26:01;9.73;;;6.47;;
5355;SDS011;70449;52.486;13.386;2023-10-13T11:28:30;15.67;;;6.60;;
5355;SDS011;70449;52.486;13.386;2023-10-13T11:30:59;12.27;;;7.83;;
5355;SDS011;70449;52.486;13.386;2023-10-13T11:33:35;10.13;;;7.03;;
5355;SDS011;70449;52.486;13.386;2023-10-13T11:36:15;12.97;;;7.23;;
5355;SDS011;70449;52.486;13.386;2023-10-13T11:38:47;22.43;;;6.03;;
5355;SDS011;70449;52.486;13.386;2023-10-13T11:41:16;19.30;;;6.87;;
5355;SDS011;70449;52.486;13.386;2023-10-13T11:43:45;12.47;;;7.33;;
5355;SDS011;70449;52.486;13.386;2023-10-13T11:46:31;11.77;;;6.37;;
5355;SDS011;70449;52.486;13.386;2023-10-13T11:49:18;11.57;;;6.50;;
5355;SDS011;70449;52.486;13.386;2023-10-13T11:51:58;10.17;;;6.10;;
5355;SDS011;70449;52.486;13.386;2023-10-13T11:54:41;19.13;;;7.50;;
5355;SDS011;70449;52.486;13.386;2023-10-13T11:57:08;15.70;;;6.70;;
5355;SDS011;70449;52.486;13.386;2023-10-13T11:59:36;9.30;;;6.13;;
5355;SDS011;70449;52.486;13.386;2023-10-13T12:02:12;13.90;;;6.50;;
5355;SDS011;70449;52.486;13.386;2023-10-13T12:04:57;11.43;;;6.43;;
5355;SDS011;70449;52.486;13.386;2023-10-13T12:07:26;16.90;;;6.20;;
5355;SDS011;70449;52.486;13.386;2023-10-13T12:10:10;25.67;;;7.23;;
5355;SDS011;70449;52.486;13.386;2023-10-13T12:12:42;13.77;;;6.30;;
5355;SDS011;70449;52.486;13.386;2023-10-13T12:15:11;10.33;;;5.27;;
5355;SDS011;70449;52.486;13.386;2023-10-13T12:17:51;15.50;;;5.80;;
5355;SDS011;70449;52.486;13.386;2023-10-13T12:20:22;15.90;;;6.37;;
5355;SDS011;70449;52.486;13.386;2023-10-13T12:23:00;9.10;;;5.10;;
5355;SDS011;70449;52.486;13.386;2023-10-13T12:25:40;28.43;;;6.90;;
5355;SDS011;70449;52.486;13.386;2023-10-13T12:28:20;12.57;;;6.07;;
5355;SDS011;70449;52.486;13.386;2023-10-13T12:30:51;10.70;;;5.70;;
5355;SDS011;70449;52.486;13.386;2023-10-13T12:33:24;17.50;;;6.00;;
5355;SDS011;70449;52.486;13.386;2023-10-13T12:35:56;13.07;;;5.60;;
5355;SDS011;70449;52.486;13.386;2023-10-13T12:38:33;10.80;;;5.67;;
5355;SDS011;70449;52.486;13.386;2023-10-13T12:41:37;10.40;;;6.10;;
5355;SDS011;70449;52.486;13.386;2023-10-13T12:44:22;16.90;;;5.53;;
5355;SDS011;70449;52.486;13.386;2023-10-13T12:47:08;14.87;;;6.60;;
5355;SDS011;70449;52.486;13.386;2023-10-13T12:49:52;15.13;;;6.03;;
5355;SDS011;70449;52.486;13.386;2023-10-13T12:52:32;10.90;;;5.10;;
5355;SDS011;70449;52.486;13.386;2023-10-13T12:55:01;18.00;;;6.40;;
5355;SDS011;70449;52.486;13.386;2023-10-13T12:57:38;15.13;;;6.67;;
5355;SDS011;70449;52.486;13.386;2023-10-13T13:00:11;14.40;;;6.40;;
5355;SDS011;70449;52.486;13.386;2023-10-13T13:02:58;14.93;;;5.70;;
5355;SDS011;70449;52.486;13.386;2023-10-13T13:05:35;11.67;;;4.93;;
5355;SDS011;70449;52.486;13.386;2023-10-13T13:08:09;20.93;;;6.50;;
5355;SDS011;70449;52.486;13.386;2023-10-13T13:10:48;11.57;;;5.17;;
5355;SDS011;70449;52.486;13.386;2023-10-13T13:13:15;21.17;;;6.10;;
5355;SDS011;70449;52.486;13.386;2023-10-13T13:15:49;9.63;;;5.63;;
5355;SDS011;70449;52.486;13.386;2023-10-13T13:18:17;8.60;;;4.50;;
5355;SDS011;70449;52.486;13.386;2023-10-13T13:20:45;15.90;;;6.13;;
5355;SDS011;70449;52.486;13.386;2023-10-13T13:23:18;13.63;;;5.30;;
5355;SDS011;70449;52.486;13.386;2023-10-13T13:25:48;9.27;;;4.57;;
5355;SDS011;70449;52.486;13.386;2023-10-13T13:28:15;16.73;;;5.80;;
5355;SDS011;70449;52.486;13.386;2023-10-13T13:30:43;22.00;;;5.67;;
5355;SDS011;70449;52.486;13.386;2023-10-13T13:33:15;13.00;;;4.47;;
5355;SDS011;70449;52.486;13.386;2023-10-13T13:35:48;8.20;;;4.80;;
5355;SDS011;70449;52.486;13.386;2023-10-13T13:38:19;12.33;;;5.33;;
5355;SDS011;70449;52.486;13.386;2023-10-13T13:40:54;30.30;;;6.20;;
5355;SDS011;70449;52.486;13.386;2023-10-13T13:43:21;17.17;;;5.53;;
5355;SDS011;70449;52.486;13.386;2023-10-13T13:46:02;14.23;;;5.13;;
5355;SDS011;70449;52.486;13.386;2023-10-13T13:48:34;15.27;;;5.07;;
5355;SDS011;70449;52.486;13.386;2023-10-13T13:51:03;15.83;;;5.33;;
5355;SDS011;70449;52.486;13.386;2023-10-13T13:53:38;14.53;;;5.13;;
5355;SDS011;70449;52.486;13.386;2023-10-13T13:56:11;13.97;;;5.37;;
5355;SDS011;70449;52.486;13.386;2023-10-13T13:58:41;12.67;;;5.93;;
5355;SDS011;70449;52.486;13.386;2023-10-13T14:01:08;13.18;;;5.70;;
5355;SDS011;70449;52.486;13.386;2023-10-13T14:03:39;9.95;;;4.80;;
5355;SDS011;70449;52.486;13.386;2023-10-13T14:06:11;14.80;;;4.72;;
5355;SDS011;70449;52.486;13.386;2023-10-13T14:08:43;15.75;;;5.30;;
5355;SDS011;70449;52.486;13.386;2023-10-13T14:11:15;21.00;;;5.55;;
5355;SDS011;70449;52.486;13.386;2023-10-13T14:13:56;11.90;;;5.03;;
5355;SDS011;70449;52.486;13.386;2023-10-13T14:16:26;20.90;;;5.68;;
5355;SDS011;70449;52.486;13.386;2023-10-13T14:18:54;18.20;;;5.70;;
5355;SDS011;70449;52.486;13.386;2023-10-13T14:21:22;13.48;;;4.95;;
5355;SDS011;70449;52.486;13.386;2023-10-13T14:23:50;21.83;;;4.53;;
5355;SDS011;70449;52.486;13.386;2023-10-13T14:26:23;14.02;;;5.28;;
5355;SDS011;70449;52.486;13.386;2023-10-13T14:28:50;16.67;;;4.68;;
5355;SDS011;70449;52.486;13.386;2023-10-13T14:31:25;21.88;;;5.78;;
5355;SDS011;70449;52.486;13.386;2023-10-13T14:33:53;22.08;;;5.03;;
5355;SDS011;70449;52.486;13.386;2023-10-13T14:36:20;12.13;;;4.60;;
5355;SDS011;70449;52.486;13.386;2023-10-13T14:38:47;14.32;;;5.57;;
5355;SDS011;70449;52.486;13.386;2023-10-13T14:41:16;16.25;;;4.75;;
5355;SDS011;70449;52.486;13.386;2023-10-13T14:43:45;11.77;;;5.85;;
5355;SDS011;70449;52.486;13.386;2023-10-13T14:46:14;11.57;;;4.93;;
5355;SDS011;70449;52.486;13.386;2023-10-13T14:48:42;14.57;;;4.82;;
5355;SDS011;70449;52.486;13.386;2023-10-13T14:51:09;16.02;;;4.70;;
5355;SDS011;70449;52.486;13.386;2023-10-13T14:53:38;16.95;;;5.03;;
5355;SDS011;70449;52.486;13.386;2023-10-13T14:56:09;14.50;;;5.43;;
5355;SDS011;70449;52.486;13.386;2023-10-13T14:58:38;16.08;;;5.18;;
5355;SDS011;70449;52.486;13.386;2023-10-13T15:01:11;9.48;;;5.32;;
5355;SDS011;70449;52.486;13.386;2023-10-13T15:03:40;12.73;;;4.93;;
5355;SDS011;70449;52.486;13.386;2023-10-13T15:06:14;21.15;;;4.88;;
5355;SDS011;70449;52.486;13.386;2023-10-13T15:08:43;18.97;;;6.07;;
5355;SDS011;70449;52.486;13.386;2023-10-13T15:11:12;16.37;;;5.00;;
5355;SDS011;70449;52.486;13.386;2023-10-13T15:13:40;14.23;;;5.90;;
5355;SDS011;70449;52.486;13.386;2023-10-13T15:16:15;26.47;;;6.93;;
5355;SDS011;70449;52.486;13.386;2023-10-13T15:18:43;12.30;;;4.77;;